Time;durP1;ratioP1;P1;durP2;ratioP2;P2;SDS_P1;SDS_P2;PMS_P1;PMS_P2;Temp;Humidity;BMP_temperature;BMP_pressure;BME280_temperature;BME280_humidity;BME280_pressure;Samples;Min_cycle;Max_cycle;Signal;HPM_P1;HPM_P2
2021/08/18 00:02:00;;;;;;;8.70;4.65;;;;;;;12.69;72.81;100019.88;5050241;28;20045;-61
2021/08/18 00:04:26;;;;;;;7.35;4.15;;;;;;;12.73;72.48;100023.94;5049289;28;20499;-58
2021/08/18 00:06:53;;;;;;;6.57;4.15;;;;;;;12.90;71.67;100028.34;5050280;28;20045;-56
2021/08/18 00:09:19;;;;;;;8.00;4.15;;;;;;;12.84;71.76;100024.47;5049614;28;20041;-56
2021/08/18 00:11:45;;;;;;;6.65;4.15;;;;;;;12.68;72.71;100024.44;5047654;28;20568;-56
2021/08/18 00:14:13;;;;;;;6.43;4.07;;;;;;;12.66;72.79;100025.56;5050139;28;20387;-54
2021/08/18 00:16:39;;;;;;;9.95;4.75;;;;;;;12.57;73.37;100028.25;5048677;28;20499;-54
2021/08/18 00:19:06;;;;;;;9.00;4.40;;;;;;;12.49;73.64;100017.44;5042274;28;20110;-57
2021/08/18 00:21:32;;;;;;;6.78;4.55;;;;;;;12.39;74.12;100015.88;5050214;28;20095;-56
2021/08/18 00:23:58;;;;;;;8.68;4.70;;;;;;;12.35;73.97;100023.44;5049154;28;20126;-57
2021/08/18 00:26:27;;;;;;;10.00;4.30;;;;;;;12.38;73.31;100022.28;5049572;28;20049;-55
2021/08/18 00:28:54;;;;;;;7.28;4.25;;;;;;;12.23;74.77;100030.09;5049485;28;20489;-58
2021/08/18 00:31:22;;;;;;;8.57;3.90;;;;;;;12.38;73.83;100024.97;5049304;28;20516;-56
2021/08/18 00:33:49;;;;;;;6.65;3.90;;;;;;;12.28;73.93;100025.91;5050028;28;20052;-57
2021/08/18 00:36:15;;;;;;;8.65;3.78;;;;;;;12.32;74.26;100031.84;5048572;28;20068;-59
2021/08/18 00:38:41;;;;;;;6.57;4.00;;;;;;;12.48;73.06;100034.59;5048853;28;20045;-62
2021/08/18 00:41:09;;;;;;;6.88;3.70;;;;;;;12.33;73.42;100030.00;5051048;28;20069;-56
2021/08/18 00:43:36;;;;;;;7.97;4.35;;;;;;;12.34;73.57;100031.69;5052804;28;20041;-53
2021/08/18 00:46:02;;;;;;;7.45;3.85;;;;;;;12.35;72.81;100028.00;5051705;28;20083;-55
2021/08/18 00:48:30;;;;;;;5.95;3.75;;;;;;;12.58;72.10;100042.56;5053212;28;20118;-54
2021/08/18 00:50:56;;;;;;;5.20;3.25;;;;;;;12.37;72.99;100031.34;5053261;28;20072;-56
2021/08/18 00:53:23;;;;;;;5.85;3.90;;;;;;;12.52;72.35;100032.44;5052998;28;20475;-53
2021/08/18 00:55:49;;;;;;;5.85;3.25;;;;;;;12.45;72.37;100034.94;5053288;28;20095;-56
2021/08/18 00:58:15;;;;;;;7.00;3.58;;;;;;;12.33;73.22;100033.53;5052929;28;20339;-53
2021/08/18 01:00:41;;;;;;;6.95;3.72;;;;;;;12.44;72.57;100035.94;5051287;28;20068;-58
2021/08/18 01:03:08;;;;;;;6.55;4.40;;;;;;;12.29;73.53;100040.22;5052604;28;20118;-56
2021/08/18 01:05:36;;;;;;;7.00;4.05;;;;;;;12.26;73.08;100043.25;5053221;28;20106;-53
2021/08/18 01:08:03;;;;;;;8.85;4.20;;;;;;;12.20;73.53;100038.50;5052210;28;20048;-57
2021/08/18 01:10:32;;;;;;;6.40;3.80;;;;;;;12.13;73.39;100029.38;5053392;28;20045;-56
2021/08/18 01:12:58;;;;;;;7.82;3.75;;;;;;;12.02;74.54;100029.66;5051681;28;20072;-57
2021/08/18 01:15:26;;;;;;;6.45;3.80;;;;;;;11.90;74.63;100034.44;5053546;28;20053;-55
2021/08/18 01:17:54;;;;;;;6.82;3.47;;;;;;;11.97;74.33;100036.34;5051905;28;20388;-64
2021/08/18 01:20:22;;;;;;;7.40;3.20;;;;;;;11.80;74.86;100026.47;5045447;28;20134;-56
2021/08/18 01:22:50;;;;;;;6.68;3.28;;;;;;;11.79;74.51;100031.97;5053024;28;20052;-54
2021/08/18 01:25:18;;;;;;;6.93;3.92;;;;;;;11.78;75.08;100020.38;5051949;28;20457;-53
2021/08/18 01:27:47;;;;;;;10.50;3.72;;;;;;;11.56;75.46;100019.03;5047350;28;20041;-56
2021/08/18 01:30:16;;;;;;;7.82;3.40;;;;;;;11.52;76.18;100030.25;5050315;28;20072;-63
2021/08/18 01:32:45;;;;;;;7.47;3.10;;;;;;;11.48;76.64;100023.50;5045849;28;20095;-53
2021/08/18 01:35:19;;;;;;;8.05;4.10;;;;;;;11.31;77.17;100026.03;5051623;28;20052;-54
2021/08/18 01:37:46;;;;;;;6.35;3.47;;;;;;;11.27;77.11;100026.50;5044727;28;20049;-54
2021/08/18 01:40:13;;;;;;;5.93;3.35;;;;;;;11.08;78.04;100022.97;5050748;28;20099;-53
2021/08/18 01:42:39;;;;;;;6.25;3.75;;;;;;;11.03;78.57;100019.06;5050227;28;20049;-53
2021/08/18 01:45:08;;;;;;;9.55;3.38;;;;;;;11.03;79.04;100022.59;5052234;28;20122;-56
2021/08/18 01:47:36;;;;;;;5.75;3.85;;;;;;;10.88;79.32;100026.78;5051182;28;20076;-57
2021/08/18 01:50:02;;;;;;;9.52;3.97;;;;;;;11.02;78.52;100022.75;5051645;28;20095;-57
2021/08/18 01:52:29;;;;;;;5.90;3.53;;;;;;;10.89;79.38;100027.63;5051254;28;20049;-54
2021/08/18 01:54:55;;;;;;;6.88;4.00;;;;;;;10.81;80.19;100023.88;5052602;28;20102;-59
2021/08/18 01:57:22;;;;;;;6.47;3.63;;;;;;;10.83;79.80;100024.56;5050460;28;20118;-59
2021/08/18 01:59:48;;;;;;;10.07;5.45;;;;;;;10.66;80.90;100030.75;5052592;28;20449;-56
2021/08/18 02:02:14;;;;;;;8.25;4.15;;;;;;;10.72;80.36;100022.09;5051460;28;20102;-59
2021/08/18 02:04:42;;;;;;;7.93;4.05;;;;;;;10.56;81.75;100021.91;5052089;28;20045;-54
2021/08/18 02:07:08;;;;;;;8.10;4.40;;;;;;;10.56;81.01;100016.53;5051716;28;20053;-60
2021/08/18 02:09:34;;;;;;;6.32;3.85;;;;;;;10.44;81.90;100017.72;5051959;28;20045;-56
2021/08/18 02:12:01;;;;;;;7.30;4.45;;;;;;;10.34;82.14;100017.75;5051421;28;20561;-58
2021/08/18 02:14:27;;;;;;;8.30;4.65;;;;;;;10.42;82.16;100022.41;5050377;28;20088;-55
2021/08/18 02:16:53;;;;;;;9.00;4.38;;;;;;;10.32;82.18;100024.28;5052157;28;20103;-57
2021/08/18 02:19:20;;;;;;;10.20;4.85;;;;;;;10.39;82.01;100015.47;5051352;28;20130;-56
2021/08/18 02:21:47;;;;;;;9.15;4.78;;;;;;;10.50;81.49;100017.13;5052671;28;20399;-59
2021/08/18 02:24:14;;;;;;;7.95;4.18;;;;;;;10.30;82.28;100018.19;5051360;28;20110;-58
2021/08/18 02:26:40;;;;;;;8.30;4.38;;;;;;;10.27;82.62;100023.84;5051158;28;20110;-56
2021/08/18 02:29:06;;;;;;;10.30;3.88;;;;;;;10.13;83.20;100009.91;5050930;28;20088;-55
2021/08/18 02:31:32;;;;;;;8.02;4.10;;;;;;;10.03;83.96;100013.63;5051655;28;20041;-61
2021/08/18 02:33:59;;;;;;;7.88;3.92;;;;;;;10.06;83.17;100024.88;5044008;28;20045;-53
2021/08/18 02:36:25;;;;;;;9.15;4.50;;;;;;;9.88;84.19;100015.91;5050367;28;20084;-54
2021/08/18 02:38:53;;;;;;;8.85;4.25;;;;;;;9.82;84.59;100001.25;5049100;28;20076;-54
2021/08/18 02:41:19;;;;;;;10.13;4.80;;;;;;;9.78;84.68;100002.53;5047846;28;20580;-57
2021/08/18 02:43:46;;;;;;;8.55;4.32;;;;;;;9.79;84.24;100001.53;5050159;28;20129;-57
2021/08/18 02:46:12;;;;;;;9.18;4.70;;;;;;;9.69;85.16;100003.41;5050901;28;20908;-56
2021/08/18 02:48:38;;;;;;;9.88;5.13;;;;;;;9.65;84.98;100008.22;5050810;28;20049;-56
2021/08/18 02:51:04;;;;;;;9.27;4.55;;;;;;;9.60;85.53;100009.66;5050658;28;20414;-57
2021/08/18 02:53:31;;;;;;;10.75;4.80;;;;;;;9.57;85.33;100005.41;5051071;28;20076;-54
2021/08/18 02:55:58;;;;;;;11.55;5.05;;;;;;;9.63;85.09;100007.50;5051161;28;20087;-58
2021/08/18 02:58:25;;;;;;;8.98;3.90;;;;;;;9.50;85.95;100006.13;5048557;28;20073;-55
2021/08/18 03:00:51;;;;;;;9.10;5.03;;;;;;;9.51;85.72;100002.47;5050018;28;20075;-53
2021/08/18 03:03:17;;;;;;;9.20;4.88;;;;;;;9.51;86.29;100005.97;5050672;28;20048;-55
2021/08/18 03:05:44;;;;;;;9.32;4.53;;;;;;;9.75;85.00;100004.66;5050223;28;20056;-59
2021/08/18 03:08:10;;;;;;;11.35;4.70;;;;;;;9.81;85.02;99998.72;5050968;28;20048;-59
2021/08/18 03:10:36;;;;;;;8.63;4.10;;;;;;;10.03;83.71;100001.03;5049853;28;20084;-57
2021/08/18 03:13:04;;;;;;;9.82;5.82;;;;;;;10.06;83.87;100000.75;5050457;28;20057;-57
2021/08/18 03:15:31;;;;;;;8.90;4.88;;;;;;;10.09;84.32;100000.47;5050590;28;20114;-55
2021/08/18 03:17:57;;;;;;;10.55;4.60;;;;;;;10.23;83.10;99999.19;5049721;28;20076;-54
2021/08/18 03:20:23;;;;;;;8.68;4.88;;;;;;;10.29;83.00;99992.38;5050076;28;20105;-55
2021/08/18 03:22:50;;;;;;;9.75;5.22;;;;;;;10.38;82.70;99996.84;5050528;28;20407;-53
2021/08/18 03:25:16;;;;;;;10.30;4.28;;;;;;;10.60;81.53;99991.06;5050000;28;20057;-55
2021/08/18 03:27:43;;;;;;;11.40;5.10;;;;;;;10.68;81.18;99991.19;5050454;28;20146;-54
2021/08/18 03:30:11;;;;;;;10.68;5.10;;;;;;;10.72;80.79;99994.41;5049285;28;20434;-56
2021/08/18 03:32:38;;;;;;;11.35;5.00;;;;;;;10.71;80.93;99985.50;5049705;28;20449;-57
2021/08/18 03:35:05;;;;;;;10.07;4.90;;;;;;;10.65;80.99;99988.78;5050227;28;21484;-57
2021/08/18 03:37:32;;;;;;;7.93;4.20;;;;;;;10.70;81.45;99993.72;5050203;28;20041;-60
2021/08/18 03:39:58;;;;;;;9.85;4.60;;;;;;;10.77;80.88;99995.66;5048980;28;20045;-53
2021/08/18 03:42:24;;;;;;;8.68;4.93;;;;;;;10.75;81.07;99989.56;5049804;28;20052;-57
2021/08/18 03:44:51;;;;;;;12.18;4.88;;;;;;;10.81;80.95;99990.81;5050123;28;20045;-56
2021/08/18 03:47:18;;;;;;;9.20;4.90;;;;;;;10.89;80.93;99988.19;5049897;28;20106;-59
2021/08/18 03:49:45;;;;;;;9.73;4.30;;;;;;;10.83;81.45;99989.66;5049368;28;20487;-57
2021/08/18 03:52:11;;;;;;;10.40;5.00;;;;;;;10.90;81.21;99992.59;5049196;28;20098;-59
2021/08/18 03:54:37;;;;;;;9.30;4.85;;;;;;;10.91;81.38;99990.75;5042945;28;20079;-56
2021/08/18 03:57:04;;;;;;;9.38;5.00;;;;;;;11.01;81.13;99994.19;5050188;28;20495;-55
2021/08/18 03:59:30;;;;;;;10.02;4.72;;;;;;;11.05;80.89;99984.84;5049074;28;20075;-55
2021/08/18 04:01:57;;;;;;;8.52;4.85;;;;;;;11.12;80.72;99986.75;5049513;28;20049;-55
2021/08/18 04:04:24;;;;;;;7.13;3.92;;;;;;;11.05;81.60;99985.69;5050479;28;20157;-54
2021/08/18 04:06:51;;;;;;;9.57;4.70;;;;;;;11.13;80.79;99982.25;5050153;28;20103;-57
2021/08/18 04:09:17;;;;;;;7.72;4.30;;;;;;;11.10;81.43;99987.91;5048789;28;20053;-56
2021/08/18 04:11:43;;;;;;;8.48;4.90;;;;;;;11.21;80.88;99990.34;5049770;28;20044;-55
2021/08/18 04:14:11;;;;;;;8.13;4.40;;;;;;;11.21;80.58;99990.34;5049412;28;20049;-56
2021/08/18 04:16:38;;;;;;;8.95;4.40;;;;;;;11.27;80.15;99989.75;5053071;28;20053;-55
2021/08/18 04:19:04;;;;;;;6.63;4.22;;;;;;;11.32;79.63;99995.50;5053372;28;20073;-55
2021/08/18 04:21:32;;;;;;;10.32;4.20;;;;;;;11.41;79.82;99994.56;5054174;28;20072;-58
2021/08/18 04:23:58;;;;;;;8.40;4.47;;;;;;;11.44;79.60;100001.47;5054534;28;20103;-54
2021/08/18 04:26:25;;;;;;;9.45;4.28;;;;;;;11.47;79.58;100000.31;5053378;28;20126;-54
2021/08/18 04:28:51;;;;;;;7.18;3.85;;;;;;;11.47;79.31;100000.31;5052642;28;20515;-55
2021/08/18 04:31:17;;;;;;;7.80;4.32;;;;;;;11.36;80.07;99988.78;5052916;28;20053;-61
2021/08/18 04:33:43;;;;;;;8.50;4.18;;;;;;;11.37;79.99;99986.97;5053143;28;20118;-58
2021/08/18 04:36:10;;;;;;;6.35;3.53;;;;;;;11.41;79.89;100005.31;5052840;28;20053;-59
2021/08/18 04:38:37;;;;;;;8.95;4.35;;;;;;;11.40;80.14;100000.09;5053115;28;20049;-57
2021/08/18 04:41:04;;;;;;;5.75;3.22;;;;;;;11.52;80.24;100011.44;5046117;28;20618;-63
2021/08/18 04:43:30;;;;;;;9.30;3.97;;;;;;;11.53;79.62;100007.75;5049814;28;20099;-56
2021/08/18 04:45:56;;;;;;;8.32;3.70;;;;;;;11.51;80.55;100009.75;5052291;28;20544;-62
2021/08/18 04:48:23;;;;;;;9.80;4.68;;;;;;;11.64;79.31;100010.19;5053507;28;20044;-57
2021/08/18 04:50:49;;;;;;;9.10;4.15;;;;;;;11.66;79.89;100009.03;5052717;28;20455;-58
2021/08/18 04:53:15;;;;;;;6.50;3.65;;;;;;;11.73;79.24;100003.03;5054094;28;20118;-57
2021/08/18 04:55:43;;;;;;;8.07;3.58;;;;;;;11.86;79.05;100007.03;5053342;28;20736;-57
2021/08/18 04:58:10;;;;;;;6.45;3.60;;;;;;;11.87;79.28;100000.66;5052555;28;20052;-56
2021/08/18 05:00:36;;;;;;;7.72;3.72;;;;;;;11.91;78.82;100009.22;5057475;22;20041;-58
2021/08/18 05:03:02;;;;;;;7.03;3.50;;;;;;;12.05;78.57;100008.63;5056672;28;20068;-59
2021/08/18 05:05:29;;;;;;;7.28;3.55;;;;;;;12.25;77.99;100011.94;5051021;28;20052;-56
2021/08/18 05:07:58;;;;;;;8.48;3.75;;;;;;;12.32;76.85;100010.31;5052388;28;20045;-57
2021/08/18 05:10:25;;;;;;;10.18;3.92;;;;;;;12.23;77.78;100014.81;5051872;28;20152;-57
2021/08/18 05:12:52;;;;;;;7.28;4.00;;;;;;;12.22;78.05;100012.28;5052739;28;20048;-58
2021/08/18 05:15:19;;;;;;;6.55;3.67;;;;;;;12.25;78.26;100018.19;5051880;28;20049;-57
2021/08/18 05:17:45;;;;;;;6.18;3.50;;;;;;;12.32;77.93;100018.38;5051909;28;20053;-57
2021/08/18 05:20:12;;;;;;;8.90;3.95;;;;;;;12.24;79.18;100018.34;5053359;28;20041;-58
2021/08/18 05:22:39;;;;;;;7.05;4.00;;;;;;;12.25;78.51;100020.88;5052672;28;20137;-56
2021/08/18 05:25:07;;;;;;;6.07;3.78;;;;;;;12.54;77.76;100028.56;5051755;28;20077;-58
2021/08/18 05:27:34;;;;;;;5.70;2.90;;;;;;;12.61;78.04;100028.78;5051591;28;20056;-58
2021/08/18 05:30:02;;;;;;;7.50;3.70;;;;;;;12.62;77.90;100032.31;5051658;28;20429;-57
2021/08/18 05:32:28;;;;;;;8.05;3.58;;;;;;;12.72;77.29;100027.63;5052694;28;20040;-54
2021/08/18 05:34:54;;;;;;;6.55;3.60;;;;;;;12.77;77.88;100033.34;5051970;28;20419;-58
2021/08/18 05:37:20;;;;;;;7.13;3.92;;;;;;;12.78;77.34;100032.34;5049079;28;20049;-57
2021/08/18 05:39:47;;;;;;;7.07;3.78;;;;;;;12.86;77.14;100032.38;5053020;28;20102;-59
2021/08/18 05:42:13;;;;;;;7.97;4.65;;;;;;;12.84;76.96;100026.31;5050103;28;20041;-56
2021/08/18 05:44:39;;;;;;;6.93;3.38;;;;;;;12.68;78.08;100037.06;5052455;28;20045;-59
2021/08/18 05:47:07;;;;;;;6.63;4.07;;;;;;;12.52;78.33;100035.13;5051580;28;20499;-56
2021/08/18 05:49:34;;;;;;;7.90;3.60;;;;;;;12.59;78.25;100038.84;5051530;28;20099;-57
2021/08/18 05:52:00;;;;;;;7.20;4.18;;;;;;;12.65;77.67;100030.13;5050656;28;20061;-57
2021/08/18 05:54:26;;;;;;;5.78;3.17;;;;;;;12.99;77.98;100043.53;5050947;28;20102;-56
2021/08/18 05:56:53;;;;;;;6.13;3.58;;;;;;;13.41;76.03;100034.56;5050192;28;20449;-57
2021/08/18 05:59:20;;;;;;;7.55;3.95;;;;;;;13.41;75.57;100026.47;5052597;28;20049;-54
2021/08/18 06:01:46;;;;;;;6.55;3.47;;;;;;;13.63;75.31;100033.03;5051085;28;20041;-58
2021/08/18 06:04:14;;;;;;;10.60;4.40;;;;;;;13.69;74.04;100030.50;5038492;28;20130;-56
2021/08/18 06:06:40;;;;;;;7.28;4.05;;;;;;;13.89;74.03;100046.34;5049438;28;20045;-57
2021/08/18 06:09:06;;;;;;;7.20;3.92;;;;;;;13.88;73.98;100041.97;5051954;28;20056;-54
2021/08/18 06:11:33;;;;;;;8.52;3.50;;;;;;;14.01;74.28;100040.41;5049638;28;20130;-55
2021/08/18 06:13:59;;;;;;;8.32;4.57;;;;;;;13.99;74.27;100042.44;5050046;28;20044;-57
2021/08/18 06:16:26;;;;;;;6.60;3.75;;;;;;;13.96;73.95;100039.22;5051251;28;20135;-56
2021/08/18 06:18:53;;;;;;;5.78;2.92;;;;;;;14.29;73.04;100038.16;5050884;28;20518;-58
2021/08/18 06:21:20;;;;;;;7.95;2.97;;;;;;;14.22;73.42;100041.72;5044661;28;20047;-57
2021/08/18 06:23:47;;;;;;;5.70;3.08;;;;;;;13.85;75.28;100032.34;5050667;28;20572;-56
2021/08/18 06:26:13;;;;;;;5.60;3.10;;;;;;;13.85;76.27;100039.56;5051060;28;20132;-59
2021/08/18 06:28:40;;;;;;;7.32;3.15;;;;;;;13.93;74.91;100029.63;5050582;28;20049;-54
2021/08/18 06:31:06;;;;;;;6.70;3.20;;;;;;;14.09;75.03;100028.78;5049036;28;20079;-56
2021/08/18 06:33:32;;;;;;;7.03;3.67;;;;;;;14.17;73.71;100030.59;5047354;28;20161;-57
2021/08/18 06:36:00;;;;;;;5.38;3.63;;;;;;;14.27;73.55;100029.38;5049112;28;20495;-57
2021/08/18 06:38:28;;;;;;;5.75;3.55;;;;;;;14.42;74.26;100031.38;5049492;28;20040;-59
2021/08/18 06:40:54;;;;;;;5.65;3.20;;;;;;;14.60;72.87;100032.03;5049694;28;20099;-59
2021/08/18 06:43:21;;;;;;;7.95;3.58;;;;;;;14.51;72.88;100030.34;5045170;28;20130;-56
2021/08/18 06:45:47;;;;;;;7.65;3.33;;;;;;;14.64;72.92;100025.25;5049008;28;20098;-58
2021/08/18 06:48:13;;;;;;;6.55;2.97;;;;;;;14.69;72.57;100022.88;5050805;28;20384;-57
2021/08/18 06:50:40;;;;;;;7.85;3.70;;;;;;;14.61;73.67;100017.50;5049864;28;20057;-55
2021/08/18 06:53:06;;;;;;;7.75;3.70;;;;;;;14.82;72.70;100023.13;5044117;28;20111;-54
2021/08/18 06:55:35;;;;;;;4.78;2.58;;;;;;;15.13;72.65;100020.41;5049698;28;20060;-57
2021/08/18 06:58:01;;;;;;;6.90;3.80;;;;;;;15.17;71.22;100018.22;5035419;28;20049;-60
2021/08/18 07:00:28;;;;;;;7.13;3.42;;;;;;;15.35;70.15;100028.72;5043546;28;20115;-59
2021/08/18 07:02:54;;;;;;;4.60;2.65;;;;;;;15.80;69.15;100030.56;5047525;28;20137;-57
2021/08/18 07:05:21;;;;;;;4.13;2.47;;;;;;;15.88;68.26;100022.41;5040220;28;20072;-58
2021/08/18 07:07:48;;;;;;;6.47;2.78;;;;;;;15.66;69.32;100018.69;5049161;28;20052;-54
2021/08/18 07:10:16;;;;;;;5.65;2.92;;;;;;;15.96;69.96;100029.56;5050564;28;20506;-54
2021/08/18 07:12:44;;;;;;;5.25;2.63;;;;;;;16.29;67.69;100021.97;5048857;28;20106;-55
2021/08/18 07:15:11;;;;;;;5.88;2.75;;;;;;;16.04;69.35;100019.50;5044083;28;20045;-57
2021/08/18 07:17:37;;;;;;;6.65;2.60;;;;;;;15.60;69.88;100022.13;5043166;28;20113;-58
2021/08/18 07:20:05;;;;;;;5.45;3.10;;;;;;;15.48;70.97;100016.25;5049334;28;20109;-58
2021/08/18 07:22:31;;;;;;;4.65;2.45;;;;;;;15.63;70.86;100027.19;5048133;28;20536;-54
2021/08/18 07:24:59;;;;;;;5.15;2.97;;;;;;;15.42;71.85;100017.00;5048862;28;20102;-55
2021/08/18 07:27:27;;;;;;;5.50;2.42;;;;;;;15.69;70.75;100023.72;5050116;28;20056;-57
2021/08/18 07:29:55;;;;;;;4.15;2.15;;;;;;;16.04;69.66;100008.69;5047437;28;20058;-57
2021/08/18 07:32:22;;;;;;;2.97;1.77;;;;;;;16.21;68.63;100020.16;5047274;28;20052;-55
2021/08/18 07:34:48;;;;;;;3.97;2.20;;;;;;;16.59;66.42;100017.38;5047983;28;20052;-57
2021/08/18 07:37:16;;;;;;;3.30;1.67;;;;;;;16.97;66.71;100012.66;5049776;28;20071;-55
2021/08/18 07:39:43;;;;;;;3.75;1.70;;;;;;;17.23;66.45;100007.53;5048261;28;20064;-57
2021/08/18 07:42:09;;;;;;;3.55;1.90;;;;;;;17.37;64.49;100015.78;5047934;28;20053;-60
2021/08/18 07:44:35;;;;;;;3.15;1.65;;;;;;;17.55;63.48;100018.91;5046214;28;20502;-57
2021/08/18 07:47:03;;;;;;;3.20;2.00;;;;;;;17.09;64.28;100007.59;5044726;28;20045;-55
2021/08/18 07:49:29;;;;;;;3.55;2.20;;;;;;;16.72;65.67;100014.88;5049251;28;20095;-56
2021/08/18 07:51:56;;;;;;;4.07;2.17;;;;;;;16.85;65.78;100014.19;5052182;28;20076;-56
2021/08/18 07:54:22;;;;;;;3.22;1.65;;;;;;;17.03;64.85;100025.44;5054043;28;20099;-54
2021/08/18 07:56:48;;;;;;;3.08;1.50;;;;;;;17.22;66.06;100008.56;5052774;28;20061;-54
2021/08/18 07:59:15;;;;;;;2.33;1.63;;;;;;;17.24;64.90;100017.34;5052870;28;20072;-57
2021/08/18 08:01:42;;;;;;;4.03;1.67;;;;;;;17.42;63.47;100013.34;5052913;28;20557;-55
2021/08/18 08:04:09;;;;;;;2.95;1.75;;;;;;;17.35;63.84;100001.59;5053501;28;20415;-57
2021/08/18 08:06:36;;;;;;;4.65;1.65;;;;;;;17.85;62.01;100013.31;5053117;28;20049;-58
2021/08/18 08:09:02;;;;;;;3.13;1.60;;;;;;;18.09;62.58;100010.16;5052474;28;20513;-59
2021/08/18 08:11:29;;;;;;;3.10;1.40;;;;;;;18.08;61.93;100020.19;5052573;28;20052;-57
2021/08/18 08:13:55;;;;;;;7.50;2.17;;;;;;;17.94;62.84;100017.59;5053191;28;20078;-59
2021/08/18 08:16:21;;;;;;;2.55;1.35;;;;;;;18.53;61.10;100017.13;5052833;28;20052;-56
2021/08/18 08:18:48;;;;;;;2.70;1.35;;;;;;;18.33;60.95;100023.28;5052655;28;20071;-56
2021/08/18 08:21:15;;;;;;;2.47;1.30;;;;;;;17.88;62.92;100019.22;5052093;28;20515;-58
2021/08/18 08:23:42;;;;;;;3.05;1.70;;;;;;;17.66;63.49;100015.66;5052101;28;20166;-59
2021/08/18 08:26:09;;;;;;;2.13;1.20;;;;;;;17.93;62.42;100015.91;5052831;28;20143;-57
2021/08/18 08:28:35;;;;;;;3.10;1.45;;;;;;;18.23;62.03;100009.25;5052732;28;20562;-58
2021/08/18 08:31:01;;;;;;;2.35;1.25;;;;;;;18.30;61.55;100011.97;5053138;28;20048;-58
2021/08/18 08:33:28;;;;;;;4.35;1.42;;;;;;;18.09;62.47;100005.56;5045567;28;20040;-58
2021/08/18 08:35:55;;;;;;;3.00;1.52;;;;;;;18.23;62.20;100011.94;5050223;28;20131;-57
2021/08/18 08:38:23;;;;;;;3.40;1.50;;;;;;;19.00;60.07;100002.72;5050449;28;20110;-59
2021/08/18 08:40:49;;;;;;;3.30;1.67;;;;;;;19.23;58.48;100002.34;5053225;28;20083;-55
2021/08/18 08:43:19;;;;;;;2.40;1.42;;;;;;;19.07;58.94;99997.31;5052150;28;20044;-57
2021/08/18 08:45:47;;;;;;;2.78;1.60;;;;;;;18.84;58.84;100000.38;5048329;28;20064;-56
2021/08/18 08:48:15;;;;;;;3.03;1.88;;;;;;;18.70;60.23;99994.84;5044306;28;20075;-56
2021/08/18 08:50:41;;;;;;;3.85;1.95;;;;;;;18.52;59.23;99994.53;5049457;28;20678;-59
2021/08/18 08:53:08;;;;;;;2.70;1.65;;;;;;;19.12;59.19;100000.22;5052358;28;20045;-56
2021/08/18 08:55:35;;;;;;;2.88;1.67;;;;;;;18.81;59.77;99998.03;5052209;28;20049;-60
2021/08/18 08:58:02;;;;;;;4.45;1.70;;;;;;;18.93;59.54;99991.81;5045092;28;20049;-56
2021/08/18 09:00:28;;;;;;;3.50;1.52;;;;;;;19.49;57.69;99988.78;5049749;28;20041;-56
2021/08/18 09:03:09;;;;;;;4.40;1.63;;;;;;;19.06;59.47;99991.03;5051161;28;20072;-56
2021/08/18 09:05:35;;;;;;;3.13;1.67;;;;;;;19.07;58.89;99991.88;5053114;28;20041;-58
2021/08/18 09:08:01;;;;;;;3.63;1.67;;;;;;;18.98;59.43;99983.03;5051541;28;20041;-53
2021/08/18 09:10:29;;;;;;;2.63;1.60;;;;;;;18.77;60.55;99985.91;5052779;28;20102;-54
2021/08/18 09:13:10;;;;;;;2.15;1.20;;;;;;;18.18;61.57;99992.69;5051068;28;20064;-58
2021/08/18 09:15:37;;;;;;;2.08;1.40;;;;;;;18.83;59.27;99995.97;5052412;28;20472;-53
2021/08/18 09:18:04;;;;;;;2.13;0.95;;;;;;;19.55;58.23;99981.72;5052150;28;20122;-55
2021/08/18 09:20:30;;;;;;;3.85;1.70;;;;;;;19.62;55.89;99995.31;5048365;28;20049;-55
2021/08/18 09:22:58;;;;;;;4.47;1.60;;;;;;;19.23;58.07;99980.59;5045141;28;20041;-56
2021/08/18 09:25:26;;;;;;;3.17;1.30;;;;;;;19.51;56.47;99981.25;5051291;28;20054;-56
2021/08/18 09:27:54;;;;;;;3.88;1.23;;;;;;;19.66;56.81;99980.25;5050993;28;20483;-59
2021/08/18 09:30:25;;;;;;;4.13;1.00;;;;;;;19.70;56.73;99971.44;5045551;28;20187;-58
2021/08/18 09:32:52;;;;;;;1.85;1.00;;;;;;;20.02;56.30;99968.91;5046439;28;20044;-54
2021/08/18 09:35:20;;;;;;;3.53;1.40;;;;;;;20.12;55.81;99961.09;5051715;28;20080;-55
2021/08/18 09:37:54;;;;;;;2.22;1.20;;;;;;;20.00;54.18;99957.38;5043124;28;20518;-56
2021/08/18 09:40:23;;;;;;;2.35;1.20;;;;;;;19.98;55.17;99963.03;5052565;28;20052;-60
2021/08/18 09:42:51;;;;;;;2.72;1.25;;;;;;;19.97;54.43;99955.06;5050645;28;20083;-55
2021/08/18 09:45:31;;;;;;;2.22;0.98;;;;;;;19.80;53.69;99944.63;5050493;28;20077;-59
2021/08/18 09:48:08;;;;;;;3.53;1.33;;;;;;;19.81;52.55;99940.03;5050131;28;20059;-58
2021/08/18 09:50:46;;;;;;;1.92;1.00;;;;;;;19.74;53.99;99950.06;5049932;28;20049;-57
2021/08/18 09:53:14;;;;;;;3.08;1.38;;;;;;;20.07;54.16;99934.53;5040386;28;20042;-53
2021/08/18 09:55:55;;;;;;;7.30;1.50;;;;;;;20.32;50.34;99952.91;5047943;28;20154;-57
2021/08/18 09:58:24;;;;;;;3.13;1.60;;;;;;;20.45;49.78;99950.16;5037007;28;20111;-57
2021/08/18 10:00:53;;;;;;;2.60;1.63;;;;;;;20.36;49.61;99949.53;5050643;28;20041;-56
2021/08/18 10:03:21;;;;;;;4.40;1.50;;;;;;;19.63;50.46;99939.81;5050460;28;20479;-56
2021/08/18 10:05:50;;;;;;;2.42;1.40;;;;;;;19.22;52.25;99954.44;5050517;28;20040;-58
2021/08/18 10:08:18;;;;;;;3.60;1.90;;;;;;;19.39;51.58;99957.56;5048158;28;20048;-57
2021/08/18 10:10:44;;;;;;;4.25;1.40;;;;;;;19.74;49.46;99953.63;5051406;28;20053;-56
2021/08/18 10:13:11;;;;;;;3.53;2.00;;;;;;;19.67;50.22;99939.19;5049179;28;20076;-57
2021/08/18 10:15:39;;;;;;;3.45;1.85;;;;;;;20.47;46.72;99952.66;5051463;28;20069;-60
2021/08/18 10:18:08;;;;;;;3.30;1.77;;;;;;;20.79;46.52;99959.03;5050070;28;20052;-61
2021/08/18 10:20:36;;;;;;;2.30;1.20;;;;;;;20.49;45.21;99939.69;5045890;28;20098;-62
2021/08/18 10:23:04;;;;;;;5.53;1.90;;;;;;;20.15;46.81;99942.47;5045334;28;20048;-62
2021/08/18 10:25:46;;;;;;;3.13;1.50;;;;;;;20.21;48.91;99945.38;5050447;28;20052;-61
2021/08/18 10:28:13;;;;;;;3.80;2.15;;;;;;;20.61;47.26;99948.84;5049860;28;20106;-60
2021/08/18 10:30:49;;;;;;;3.15;2.03;;;;;;;21.09;46.60;99962.84;5052876;28;20100;-61
2021/08/18 10:33:55;;;;;;;5.20;2.00;;;;;;;20.74;45.95;99946.06;5052782;28;20133;-61
2021/08/18 10:36:56;;;;;;;2.42;1.48;;;;;;;20.70;47.71;99952.97;5052475;28;20152;-60
2021/08/18 10:39:38;;;;;;;3.05;2.00;;;;;;;20.85;47.00;99944.53;5042125;28;20049;-62
2021/08/18 10:42:06;;;;;;;3.40;2.10;;;;;;;20.79;47.62;99942.66;5042656;28;20421;-61
2021/08/18 10:44:35;;;;;;;3.47;2.00;;;;;;;20.57;47.53;99945.69;5052222;28;20041;-62
2021/08/18 10:47:18;;;;;;;3.45;1.70;;;;;;;20.66;47.00;99946.28;5051804;28;20056;-61
2021/08/18 10:49:47;;;;;;;3.60;1.45;;;;;;;20.71;46.87;99955.47;5047852;28;20139;-63
2021/08/18 10:52:49;;;;;;;6.65;2.60;;;;;;;20.12;48.86;99956.50;5048313;28;20090;-61
2021/08/18 10:55:18;;;;;;;3.85;2.15;;;;;;;20.21;47.72;99961.72;5044975;28;20059;-63
2021/08/18 10:57:48;;;;;;;5.38;2.30;;;;;;;20.31;48.43;99968.41;5052788;28;20061;-61
2021/08/18 11:00:18;;;;;;;4.10;2.20;;;;;;;20.02;48.56;99967.03;5068129;22;20064;-61
2021/08/18 11:02:58;;;;;;;3.95;2.00;;;;;;;20.06;48.77;99967.44;5054015;28;20060;-59
2021/08/18 11:05:27;;;;;;;3.83;2.15;;;;;;;20.08;48.73;99966.16;5063762;28;20101;-64
2021/08/18 11:08:11;;;;;;;4.05;1.92;;;;;;;20.01;50.62;99959.91;5072460;28;20102;-61
2021/08/18 11:10:42;;;;;;;4.25;2.60;;;;;;;20.04;49.27;99951.28;5071976;28;20075;-64
2021/08/18 11:13:09;;;;;;;2.90;1.90;;;;;;;20.02;48.69;99953.41;5065252;28;20049;-64
2021/08/18 11:15:53;;;;;;;3.75;2.03;;;;;;;20.23;49.63;99948.72;5050305;28;20053;-62
2021/08/18 11:18:21;;;;;;;3.13;1.88;;;;;;;20.43;48.54;99955.81;5032427;28;20045;-62
2021/08/18 11:20:52;;;;;;;3.58;2.40;;;;;;;20.40;49.26;99964.41;5032144;28;20053;-60
2021/08/18 11:23:31;;;;;;;4.90;1.90;;;;;;;20.14;47.85;99948.97;5031824;28;20053;-58
2021/08/18 11:26:02;;;;;;;3.25;2.08;;;;;;;20.38;48.48;99949.31;5032002;28;20077;-61
2021/08/18 11:28:31;;;;;;;3.13;1.70;;;;;;;20.51;48.01;99941.13;5038266;28;20453;-62
2021/08/18 11:31:01;;;;;;;3.85;1.90;;;;;;;20.37;48.68;99953.09;5051657;28;20067;-61